Time;durP1;ratioP1;P1;durP2;ratioP2;P2;SDS_P1;SDS_P2;PMS_P1;PMS_P2;Temp;Humidity;BMP_temperature;BMP_pressure;BME280_temperature;BME280_humidity;BME280_pressure;Samples;Min_cycle;Max_cycle;Signal;HPM_P1;HPM_P2
2023/06/05 00:00:11;;;;;;;;;5.33;4.00;;;;;19.95;44.78;101348.25;4963223;28;45237;-78
2023/06/05 00:02:37;;;;;;;;;6.00;5.67;;;;;19.26;45.56;101248.03;4961994;28;45794;-78
2023/06/05 00:05:08;;;;;;;;;6.00;4.33;;;;;19.81;46.01;101357.22;4979676;28;45440;-77
2023/06/05 00:07:34;;;;;;;;;4.00;4.00;;;;;19.69;46.07;101352.31;4979827;28;45541;-77
2023/06/05 00:10:00;;;;;;;;;6.67;4.33;;;;;19.70;46.18;101359.38;4979783;28;45508;-78
2023/06/05 00:12:25;;;;;;;;;6.67;5.00;;;;;19.23;46.14;101291.53;4979338;28;45550;-77
2023/06/05 00:14:50;;;;;;;;;6.00;6.00;;;;;19.58;46.63;101363.56;4979417;28;45184;-78
2023/06/05 00:17:16;;;;;;;;;6.00;4.67;;;;;19.51;46.68;101348.31;4978357;28;45484;-77
2023/06/05 00:19:41;;;;;;;;;6.00;6.00;;;;;19.44;46.70;101349.06;4961148;28;45612;-80
2023/06/05 00:22:07;;;;;;;;;5.00;5.00;;;;;19.54;46.64;101366.84;4979547;28;46030;-79
2023/06/05 00:24:32;;;;;;;;;6.33;4.00;;;;;19.45;47.04;101353.44;4982991;28;45164;-78
2023/06/05 00:26:58;;;;;;;;;7.00;6.00;;;;;19.35;47.18;101355.56;4980445;28;45378;-77
2023/06/05 00:29:23;;;;;;;;;4.67;4.00;;;;;19.25;47.37;101340.72;4962321;28;45605;-78
2023/06/05 00:31:48;;;;;;;;;3.33;3.33;;;;;19.17;47.37;101343.47;4978806;28;61103;-79
2023/06/05 00:34:14;;;;;;;;;4.00;4.00;;;;;19.30;47.49;101362.56;4979398;28;46352;-78
2023/06/05 00:36:40;;;;;;;;;4.33;3.00;;;;;19.24;47.41;101355.22;4981103;28;45578;-78
2023/06/05 00:39:06;;;;;;;;;5.00;4.00;;;;;19.29;47.29;101356.31;4978347;28;45456;-79
2023/06/05 00:41:31;;;;;;;;;2.33;2.33;;;;;19.19;47.73;101354.91;4978694;28;45516;-77
2023/06/05 00:43:57;;;;;;;;;3.67;3.67;;;;;18.97;47.51;101338.63;4979309;28;45341;-78
2023/06/05 00:46:22;;;;;;;;;4.00;4.00;;;;;18.96;47.38;101331.56;4961562;28;45329;-78
2023/06/05 00:48:48;;;;;;;;;5.00;5.00;;;;;19.22;47.57;101376.97;4961418;28;45315;-78
2023/06/05 00:51:15;;;;;;;;;7.00;5.33;;;;;19.08;47.67;101343.59;4979056;28;45730;-79
2023/06/05 00:53:43;;;;;;;;;4.00;4.00;;;;;19.05;47.66;101338.56;4965128;28;46074;-78
2023/06/05 00:56:09;;;;;;;;;5.33;4.67;;;;;18.98;47.54;101329.53;4984528;28;45373;-77
2023/06/05 00:58:34;;;;;;;;;4.00;4.00;;;;;19.21;47.14;101358.25;4978051;28;45620;-78
2023/06/05 01:01:03;;;;;;;;;4.00;4.00;;;;;19.23;47.81;101356.25;4962431;28;47939;-78
2023/06/05 01:03:33;;;;;;;;;5.67;5.00;;;;;19.07;47.79;101344.59;4978985;28;45306;-77
2023/06/05 01:06:03;;;;;;;;;4.00;3.67;;;;;19.02;47.88;101330.84;4961038;28;45373;-80
2023/06/05 01:08:30;;;;;;;;;4.67;4.00;;;;;19.08;47.85;101353.53;4979035;28;45371;-77
2023/06/05 01:11:01;;;;;;;;;6.00;4.00;;;;;19.06;47.97;101348.31;4978785;28;46122;-78
2023/06/05 01:13:31;;;;;;;;;6.33;4.67;;;;;19.03;48.31;101362.19;4978579;28;45309;-78
2023/06/05 01:15:58;;;;;;;;;6.33;6.33;;;;;18.80;47.96;101318.25;4978868;28;45233;-78
2023/06/05 01:18:24;;;;;;;;;6.00;6.00;;;;;19.03;47.97;101362.19;4961249;28;45533;-80
2023/06/05 01:20:50;;;;;;;;;4.33;4.33;;;;;19.02;48.18;101356.94;4980037;28;46477;-78
2023/06/05 01:23:15;;;;;;;;;7.00;4.67;;;;;18.54;48.17;101287.19;4982683;28;45334;-78
2023/06/05 01:25:42;;;;;;;;;6.33;5.67;;;;;18.94;48.38;101351.66;4961829;28;45394;-78
2023/06/05 01:28:16;;;;;;;;;6.00;5.00;;;;;18.94;48.73;101357.88;4978924;28;45361;-77
2023/06/05 01:30:46;;;;;;;;;4.00;4.00;;;;;19.02;48.19;101370.41;4961634;28;47668;-77
2023/06/05 01:33:17;;;;;;;;;4.67;4.67;;;;;19.00;48.17;101357.13;4962593;28;45360;-78
2023/06/05 01:35:44;;;;;;;;;4.67;3.00;;;;;18.96;48.17;101345.03;4961233;28;45335;-77
2023/06/05 01:38:11;;;;;;;;;6.33;5.00;;;;;18.97;48.32;101359.34;4978523;28;45421;-79
2023/06/05 01:40:37;;;;;;;;;4.67;4.00;;;;;18.81;48.56;101336.09;4978104;28;45287;-79
2023/06/05 01:43:05;;;;;;;;;5.00;5.00;;;;;18.56;48.57;101297.75;4978437;28;45259;-78
2023/06/05 01:45:31;;;;;;;;;6.67;4.00;;;;;18.83;48.43;101343.00;4978192;28;45366;-78
2023/06/05 01:47:57;;;;;;;;;4.67;4.67;;;;;18.97;48.43;101367.44;4978512;28;45519;-80
2023/06/05 01:50:23;;;;;;;;;7.00;4.33;;;;;18.81;48.74;101349.56;4981583;28;45564;-77
2023/06/05 01:52:49;;;;;;;;;4.00;4.00;;;;;18.86;48.80;101373.28;4980172;28;45324;-78
2023/06/05 01:55:23;;;;;;;;;5.67;4.00;;;;;18.74;49.00;101360.25;4963472;28;45326;-79
2023/06/05 01:57:50;;;;;;;;;4.33;2.00;;;;;18.59;49.32;101339.66;4961339;28;45358;-79
2023/06/05 02:00:16;;;;;;;;;6.00;5.00;;;;;18.65;48.80;101355.13;4978060;28;46528;-77
2023/06/05 02:02:45;;;;;;;;;6.00;4.33;;;;;18.60;48.95;101341.31;4977314;28;45311;-77
2023/06/05 02:05:12;;;;;;;;;7.00;4.00;;;;;18.64;49.04;101329.22;4977038;28;45464;-77
2023/06/05 02:07:47;;;;;;;;;10.00;7.00;;;;;18.59;48.85;101336.97;4980786;28;45421;-77
2023/06/05 02:10:13;;;;;;;;;6.33;5.67;;;;;18.58;49.04;101341.50;4978375;28;46288;-78
2023/06/05 02:12:38;;;;;;;;;6.00;5.00;;;;;18.61;49.35;101357.28;4977994;28;45408;-77
2023/06/05 02:15:04;;;;;;;;;5.00;5.00;;;;;18.20;49.90;101281.41;4978161;28;45291;-77
2023/06/05 02:17:30;;;;;;;;;6.33;5.33;;;;;18.49;49.83;101351.53;4978689;28;45314;-77
2023/06/05 02:19:55;;;;;;;;;5.33;5.33;;;;;18.36;49.90;101337.81;4982982;28;45543;-77
2023/06/05 02:22:23;;;;;;;;;5.33;5.33;;;;;18.29;49.56;101322.56;4979332;28;45317;-78
2023/06/05 02:24:49;;;;;;;;;5.33;5.00;;;;;18.20;49.82;101311.03;4977941;28;45224;-77
2023/06/05 02:27:15;;;;;;;;;7.00;7.00;;;;;18.27;50.15;101333.53;4977942;28;45362;-77
2023/06/05 02:29:41;;;;;;;;;6.00;5.00;;;;;18.14;50.10;101319.81;4978585;28;46253;-77
2023/06/05 02:32:06;;;;;;;;;4.67;4.67;;;;;17.82;50.10;101267.94;4978356;28;45306;-78
2023/06/05 02:34:32;;;;;;;;;6.00;5.00;;;;;17.84;50.56;101284.72;4978034;28;45295;-79
2023/06/05 02:37:01;;;;;;;;;6.67;6.67;;;;;18.17;50.45;101335.59;4960539;28;45494;-78
2023/06/05 02:39:26;;;;;;;;;6.67;6.00;;;;;17.93;50.88;101321.31;4977730;28;45227;-80
2023/06/05 02:41:53;;;;;;;;;6.00;5.67;;;;;17.86;50.55;101301.53;4977603;28;45500;-78
2023/06/05 02:44:18;;;;;;;;;6.00;6.00;;;;;18.09;50.68;101344.59;4977776;28;45492;-76
2023/06/05 02:46:44;;;;;;;;;7.00;7.00;;;;;18.14;50.75;101342.19;4962002;28;45264;-77
2023/06/05 02:49:09;;;;;;;;;7.00;6.00;;;;;18.08;50.29;101326.78;4980737;28;46748;-75
2023/06/05 02:51:35;;;;;;;;;7.00;6.00;;;;;17.89;50.60;101286.88;4960017;28;46002;-77
2023/06/05 02:54:00;;;;;;;;;6.00;5.00;;;;;18.08;50.67;101318.69;4977396;28;45305;-78
2023/06/05 02:56:26;;;;;;;;;8.33;5.00;;;;;18.03;51.06;101331.03;4977535;28;45309;-76
2023/06/05 02:58:52;;;;;;;;;4.00;4.00;;;;;17.80;50.88;101299.53;4976916;28;46596;-77
2023/06/05 03:01:18;;;;;;;;;4.00;4.00;;;;;17.95;51.01;101313.06;4977189;28;45551;-76
2023/06/05 03:03:44;;;;;;;;;5.67;5.67;;;;;17.67;51.31;101283.13;4979024;28;46417;-78
2023/06/05 03:06:11;;;;;;;;;9.00;5.33;;;;;17.90;51.10;101318.13;4963411;28;45389;-77
2023/06/05 03:08:37;;;;;;;;;4.33;4.33;;;;;17.81;51.39;101306.56;4963433;28;46993;-77
2023/06/05 03:11:04;;;;;;;;;6.33;5.00;;;;;18.00;51.50;101342.09;4963167;28;45537;-79
2023/06/05 03:13:30;;;;;;;;;8.67;7.00;;;;;17.92;51.54;101330.41;4963190;28;45463;-78
2023/06/05 03:15:57;;;;;;;;;8.00;7.00;;;;;17.86;51.39;101320.34;4981695;28;45547;-78
2023/06/05 03:18:26;;;;;;;;;7.33;7.33;;;;;17.88;51.85;101339.84;4969131;28;47168;-78
2023/06/05 03:20:54;;;;;;;;;11.67;9.00;;;;;17.75;51.94;101320.75;4983758;28;45259;-79
2023/06/05 03:23:25;;;;;;;;;6.00;6.00;;;;;17.88;51.94;101344.38;4979473;28;45387;-78
2023/06/05 03:25:51;;;;;;;;;10.67;9.00;;;;;17.85;52.16;101350.13;4980699;28;45318;-79
2023/06/05 03:28:20;;;;;;;;;6.00;6.00;;;;;17.76;52.19;101333.19;4981066;28;48486;-79
2023/06/05 03:30:46;;;;;;;;;7.67;6.00;;;;;17.81;52.08;101346.91;4963298;28;45391;-78
2023/06/05 03:33:13;;;;;;;;;7.00;5.67;;;;;17.81;52.42;101357.69;4980666;28;45406;-79
2023/06/05 03:35:40;;;;;;;;;7.00;7.00;;;;;17.82;52.07;101345.94;4962977;28;45255;-78
2023/06/05 03:38:05;;;;;;;;;7.00;7.00;;;;;17.40;52.35;101283.59;4962572;28;47749;-79
2023/06/05 03:40:31;;;;;;;;;8.33;8.33;;;;;17.73;52.30;101346.97;4962605;28;45709;-79
2023/06/05 03:42:56;;;;;;;;;7.00;7.00;;;;;17.68;53.02;101338.59;4981524;28;45178;-78
2023/06/05 03:45:22;;;;;;;;;5.00;5.00;;;;;17.66;52.68;101339.78;4967546;28;45296;-79
2023/06/05 03:47:48;;;;;;;;;7.67;6.00;;;;;17.68;52.90;101341.28;4979772;28;48472;-79
2023/06/05 03:50:15;;;;;;;;;6.33;6.00;;;;;17.59;53.29;101339.63;4962920;28;45906;-78
2023/06/05 03:52:40;;;;;;;;;11.00;10.00;;;;;17.50;53.32;101336.13;4962917;28;45560;-79
2023/06/05 03:55:10;;;;;;;;;8.33;8.33;;;;;17.47;53.48;101336.50;4979862;28;45677;-79
2023/06/05 03:57:37;;;;;;;;;9.33;8.33;;;;;17.49;54.21;101345.22;4962084;28;46381;-80
2023/06/05 04:00:09;;;;;;;;;8.33;7.00;;;;;17.36;53.57;101319.91;4962245;28;45618;-76
2023/06/05 04:02:36;;;;;;;;;6.00;6.00;;;;;17.18;53.50;101286.03;4961787;28;45252;-78
2023/06/05 04:05:02;;;;;;;;;9.33;9.00;;;;;17.49;53.46;101344.38;4979472;28;45315;-77
2023/06/05 04:07:28;;;;;;;;;11.33;10.00;;;;;17.45;53.78;101359.19;4979579;28;46244;-77
2023/06/05 04:09:53;;;;;;;;;7.00;7.00;;;;;17.37;54.26;101357.34;4963765;28;45505;-77
2023/06/05 04:12:20;;;;;;;;;10.67;7.67;;;;;17.27;54.60;101330.69;4981937;28;45186;-78
2023/06/05 04:14:46;;;;;;;;;7.67;5.33;;;;;17.32;54.71;101357.03;4964124;28;45262;-77
2023/06/05 04:17:13;;;;;;;;;8.33;8.33;;;;;17.24;54.49;101349.84;4980638;28;45473;-78
2023/06/05 04:19:39;;;;;;;;;10.67;8.33;;;;;17.28;54.41;101344.97;4979110;28;45315;-78
2023/06/05 04:22:05;;;;;;;;;12.00;8.00;;;;;17.00;54.65;101304.22;4977523;28;45508;-78
2023/06/05 04:24:31;;;;;;;;;9.67;9.67;;;;;17.11;54.61;101313.78;4977731;28;45504;-79
2023/06/05 04:26:57;;;;;;;;;8.67;6.67;;;;;17.22;54.33;101338.44;4980151;28;45835;-79
2023/06/05 04:29:23;;;;;;;;;13.00;11.00;;;;;17.40;54.49;101354.31;4982207;28;45378;-79
2023/06/05 04:31:48;;;;;;;;;8.67;8.67;;;;;17.42;54.57;101351.44;4966418;28;45287;-79
2023/06/05 04:34:14;;;;;;;;;8.00;5.33;;;;;17.43;54.46;101361.22;4964031;28;45562;-78
2023/06/05 04:36:40;;;;;;;;;4.33;3.00;;;;;17.40;54.76;101361.53;4978558;28;46275;-77
2023/06/05 04:39:13;;;;;;;;;10.33;7.67;;;;;17.18;54.51;101326.34;4962079;28;45358;-80
2023/06/05 04:41:44;;;;;;;;;11.00;11.00;;;;;17.39;54.96;101359.84;4982505;28;45295;-78
2023/06/05 04:44:10;;;;;;;;;13.00;12.00;;;;;17.36;55.38;101370.97;4964097;28;45373;-77
2023/06/05 04:46:38;;;;;;;;;10.00;9.33;;;;;17.34;54.95;101369.28;4979653;28;45705;-77
2023/06/05 04:49:04;;;;;;;;;8.67;8.00;;;;;17.31;55.16;101364.25;4979131;28;45381;-78
2023/06/05 04:51:29;;;;;;;;;12.00;8.33;;;;;17.29;55.11;101347.47;4961343;28;45464;-78
2023/06/05 04:53:55;;;;;;;;;11.00;10.00;;;;;17.29;55.35;101360.91;4961696;28;45342;-78
2023/06/05 04:56:24;;;;;;;;;10.67;7.67;;;;;17.27;55.35;101354.88;4979918;28;45766;-78
2023/06/05 04:58:51;;;;;;;;;9.33;9.00;;;;;17.24;55.13;101360.59;4962008;28;45430;-80
2023/06/05 05:01:17;;;;;;;;;14.67;12.00;;;;;17.23;55.47;101361.63;4978935;28;45386;-79
2023/06/05 05:03:46;;;;;;;;;10.67;9.00;;;;;16.99;55.23;101326.72;4977913;28;45666;-80
2023/06/05 05:06:14;;;;;;;;;10.33;8.67;;;;;17.41;55.35;101376.66;4979499;28;46245;-79
2023/06/05 05:08:40;;;;;;;;;15.33;11.67;;;;;17.38;55.36;101353.66;4982219;28;45330;-79
2023/06/05 05:11:05;;;;;;;;;12.67;11.67;;;;;17.40;54.88;101357.00;4966602;28;45385;-79
2023/06/05 05:13:30;;;;;;;;;12.00;9.67;;;;;17.32;55.14;101339.06;4980842;28;45231;-79
2023/06/05 05:15:56;;;;;;;;;17.67;12.67;;;;;17.49;55.28;101369.41;4980382;28;47850;-77
2023/06/05 05:18:21;;;;;;;;;11.67;11.00;;;;;17.50;55.30;101372.94;4963693;28;45631;-79
2023/06/05 05:20:47;;;;;;;;;14.33;12.33;;;;;17.45;55.09;101359.19;4960620;28;45246;-78
2023/06/05 05:23:14;;;;;;;;;9.33;9.33;;;;;17.26;55.13;101326.31;4962779;28;45583;-78
2023/06/05 05:25:40;;;;;;;;;14.33;12.00;;;;;17.37;55.37;101354.66;4961156;28;46876;-78
2023/06/05 05:28:06;;;;;;;;;12.67;12.67;;;;;17.51;55.43;101374.59;4970345;28;45336;-79
2023/06/05 05:30:32;;;;;;;;;13.00;10.67;;;;;17.53;55.49;101372.59;4977613;28;45470;-79
2023/06/05 05:32:58;;;;;;;;;10.67;10.67;;;;;17.51;55.48;101380.00;4961635;28;45474;-77
2023/06/05 05:35:23;;;;;;;;;12.00;10.33;;;;;17.49;55.54;101376.63;4978074;28;46183;-78
2023/06/05 05:37:48;;;;;;;;;13.00;10.67;;;;;17.59;55.20;101388.00;4963509;28;45952;-79
2023/06/05 05:40:17;;;;;;;;;12.00;9.67;;;;;17.69;54.99;101380.63;4982223;28;45467;-80
2023/06/05 05:42:43;;;;;;;;;14.00;12.33;;;;;17.64;55.29;101386.50;4986957;28;45477;-80
2023/06/05 05:45:09;;;;;;;;;9.33;9.33;;;;;17.31;55.30;101332.00;4948566;28;48029;-77
2023/06/05 05:47:34;;;;;;;;;13.00;12.00;;;;;17.49;55.32;101350.59;4959653;28;45160;-78
2023/06/05 05:50:00;;;;;;;;;11.67;11.67;;;;;17.61;55.09;101364.47;4941362;28;45931;-77
2023/06/05 05:52:25;;;;;;;;;15.00;15.00;;;;;17.80;54.95;101384.75;4946977;28;45462;-78
2023/06/05 05:54:51;;;;;;;;;14.00;13.33;;;;;17.85;54.47;101372.47;4978723;28;45481;-78
2023/06/05 05:57:17;;;;;;;;;12.33;11.33;;;;;18.00;54.48;101382.47;4960226;28;45888;-77
2023/06/05 05:59:44;;;;;;;;;11.33;10.67;;;;;18.11;54.15;101376.69;4978187;28;45356;-78
2023/06/05 06:02:10;;;;;;;;;10.67;10.67;;;;;18.10;53.53;101354.34;4977101;28;45540;-77
2023/06/05 06:04:38;;;;;;;;;14.67;11.33;;;;;18.54;53.11;101397.59;4978023;28;46588;-80
2023/06/05 06:07:05;;;;;;;;;11.00;10.67;;;;;18.92;52.03;101394.09;4956432;28;45372;-79
2023/06/05 06:09:30;;;;;;;;;13.67;10.00;;;;;19.28;51.50;101391.56;4960280;28;45300;-79
2023/06/05 06:11:56;;;;;;;;;13.00;12.00;;;;;19.70;50.23;101391.75;4958965;28;45493;-74
2023/06/05 06:14:22;;;;;;;;;12.00;12.00;;;;;20.05;49.30;101384.72;4959554;28;45627;-79
2023/06/05 06:16:49;;;;;;;;;14.00;14.00;;;;;20.44;48.45;101393.47;4957739;28;45490;-80
2023/06/05 06:19:16;;;;;;;;;13.33;11.67;;;;;20.79;48.10;101387.13;4940501;28;45426;-76
2023/06/05 06:21:42;;;;;;;;;10.00;8.67;;;;;21.01;46.75;101381.66;4941368;28;45605;-76
2023/06/05 06:24:07;;;;;;;;;11.67;11.67;;;;;21.20;45.63;101384.50;4956862;28;47689;-76
2023/06/05 06:26:33;;;;;;;;;13.00;12.00;;;;;21.52;45.38;101396.59;4958347;28;45374;-73
2023/06/05 06:28:59;;;;;;;;;13.00;12.00;;;;;21.65;44.81;101387.72;4959420;28;45225;-77
2023/06/05 06:31:24;;;;;;;;;9.33;9.33;;;;;21.76;44.97;101402.53;4975487;28;45489;-76
2023/06/05 06:33:50;;;;;;;;;10.67;10.67;;;;;21.94;43.69;101402.00;4974913;28;45299;-77
2023/06/05 06:36:17;;;;;;;;;15.00;13.67;;;;;21.98;43.83;101393.25;4959875;28;45514;-77
2023/06/05 06:38:46;;;;;;;;;14.00;10.00;;;;;22.32;43.69;101399.63;4979214;28;45648;-76
2023/06/05 06:41:12;;;;;;;;;10.67;10.67;;;;;22.53;42.21;101396.75;4961403;28;45608;-83
2023/06/05 06:43:37;;;;;;;;;12.00;12.00;;;;;22.64;41.95;101362.78;4963854;28;47148;-77
2023/06/05 06:46:04;;;;;;;;;12.33;11.00;;;;;23.07;41.46;101387.63;4971682;28;46082;-77
2023/06/05 06:48:30;;;;;;;;;11.00;9.00;;;;;23.35;41.11;101385.47;4979186;28;45548;-74
2023/06/05 06:50:55;;;;;;;;;11.33;11.33;;;;;23.73;40.49;101390.19;4962817;28;45492;-78
2023/06/05 06:53:21;;;;;;;;;13.00;9.67;;;;;23.98;39.25;101391.09;4980483;28;45690;-76
2023/06/05 06:55:46;;;;;;;;;9.67;8.67;;;;;24.23;39.60;101388.47;4979872;28;53663;-79
2023/06/05 06:58:11;;;;;;;;;13.67;13.00;;;;;24.49;38.69;101395.66;4978398;28;45262;-77
2023/06/05 07:00:37;;;;;;;;;11.33;10.00;;;;;24.73;38.23;101382.28;4980397;28;45469;-79
2023/06/05 07:03:02;;;;;;;;;13.67;12.67;;;;;24.90;37.47;101349.94;4979804;28;46060;-74
2023/06/05 07:05:27;;;;;;;;;9.33;9.33;;;;;25.51;37.29;101396.19;4980811;28;45243;-75
2023/06/05 07:07:53;;;;;;;;;12.33;11.00;;;;;25.73;35.81;101391.97;4973778;28;45254;-80
2023/06/05 07:10:18;;;;;;;;;9.67;9.67;;;;;25.75;35.93;101389.03;4979685;28;45389;-76
2023/06/05 07:12:44;;;;;;;;;8.33;8.33;;;;;25.89;36.03;101385.09;4979507;28;46050;-74
2023/06/05 07:15:10;;;;;;;;;14.33;10.33;;;;;26.20;35.09;101396.81;4979492;28;45467;-74
2023/06/05 07:17:35;;;;;;;;;10.00;10.00;;;;;26.22;34.60;101391.94;4977222;28;45633;-75
2023/06/05 07:20:00;;;;;;;;;16.00;10.33;;;;;26.32;34.74;101398.53;4962394;28;45327;-74
2023/06/05 07:22:30;;;;;;;;;8.33;7.00;;;;;26.35;34.72;101392.63;4962244;28;46319;-75
2023/06/05 07:24:55;;;;;;;;;13.00;12.00;;;;;26.60;34.62;101391.63;4961603;28;45351;-75
2023/06/05 07:27:21;;;;;;;;;12.67;12.67;;;;;26.91;33.87;101406.84;4978730;28;45351;-79
2023/06/05 07:29:46;;;;;;;;;15.33;14.00;;;;;27.18;33.35;101394.44;4978271;28;45574;-77
2023/06/05 07:32:12;;;;;;;;;11.33;10.33;;;;;27.32;32.49;101400.47;4977823;28;46457;-78
2023/06/05 07:34:38;;;;;;;;;10.33;10.00;;;;;27.46;32.81;101404.63;4960841;28;46572;-79
2023/06/05 07:37:04;;;;;;;;;10.67;9.67;;;;;27.67;32.01;101405.91;4965066;28;45850;-82
2023/06/05 07:39:29;;;;;;;;;12.67;11.00;;;;;27.77;31.63;101395.19;4954149;28;45432;-78
2023/06/05 07:41:55;;;;;;;;;12.67;12.33;;;;;27.69;32.41;101379.19;4974143;28;46456;-78
2023/06/05 07:44:23;;;;;;;;;9.33;8.33;;;;;27.93;32.01;101385.41;4973689;28;45453;-77
2023/06/05 07:46:50;;;;;;;;;12.00;9.00;;;;;28.25;32.36;101396.72;4974353;28;45476;-77
2023/06/05 07:49:16;;;;;;;;;11.67;8.33;;;;;28.39;30.91;101375.34;4971983;28;45489;-80
2023/06/05 07:51:42;;;;;;;;;10.67;9.00;;;;;28.78;30.87;101401.72;4974313;28;46517;-77
2023/06/05 07:54:10;;;;;;;;;9.67;9.33;;;;;28.76;30.56;101381.97;4975094;28;45439;-76
2023/06/05 07:56:36;;;;;;;;;11.33;10.00;;;;;28.81;30.18;101394.09;4947179;28;45561;-77
2023/06/05 07:59:03;;;;;;;;;10.33;8.67;;;;;28.51;30.76;101351.47;4954169;28;45572;-80
2023/06/05 08:01:29;;;;;;;;;10.67;8.00;;;;;28.88;30.60;101389.31;4971960;28;47573;-76
2023/06/05 08:03:55;;;;;;;;;9.00;9.00;;;;;28.91;29.36;101351.31;4972950;28;45151;-76
2023/06/05 08:06:20;;;;;;;;;12.67;11.00;;;;;29.11;29.28;101389.13;4976619;28;45639;-76
2023/06/05 08:08:46;;;;;;;;;11.67;10.67;;;;;28.87;30.05;101393.97;4976146;28;45520;-78
2023/06/05 08:11:11;;;;;;;;;12.33;11.00;;;;;29.00;29.81;101382.66;4974028;28;47173;-79
2023/06/05 08:13:38;;;;;;;;;9.33;9.33;;;;;29.20;30.11;101386.78;4972738;28;45515;-76
2023/06/05 08:16:04;;;;;;;;;13.00;11.67;;;;;29.26;29.84;101389.34;4974855;28;45521;-79
2023/06/05 08:18:30;;;;;;;;;10.33;9.33;;;;;29.46;29.60;101390.75;4973944;28;45365;-77
2023/06/05 08:20:56;;;;;;;;;11.00;10.00;;;;;29.83;29.09;101367.06;4976052;28;46568;-80
2023/06/05 08:23:21;;;;;;;;;9.33;9.00;;;;;30.12;28.82;101366.88;4971390;28;45506;-81
2023/06/05 08:25:48;;;;;;;;;12.00;8.00;;;;;30.51;28.59;101371.06;4958379;28;45559;-79
2023/06/05 08:28:13;;;;;;;;;10.33;10.33;;;;;30.76;27.80;101367.72;4946336;28;45470;-84
2023/06/05 08:30:40;;;;;;;;;10.33;9.00;;;;;30.89;27.50;101360.97;4976881;28;45971;-79
2023/06/05 08:33:05;;;;;;;;;8.00;7.33;;;;;31.08;27.41;101370.44;4960561;28;45865;-78
2023/06/05 08:35:30;;;;;;;;;9.33;9.33;;;;;31.27;27.04;101376.34;4941033;28;46044;-79
2023/06/05 08:37:56;;;;;;;;;10.67;9.33;;;;;31.47;26.73;101381.94;4974001;28;45400;-79
2023/06/05 08:40:25;;;;;;;;;9.00;9.00;;;;;31.49;26.39;101367.94;4974558;28;45676;-77
2023/06/05 08:42:51;;;;;;;;;11.00;9.67;;;;;31.36;26.82;101376.66;4977083;28;45408;-85
2023/06/05 08:45:16;;;;;;;;;9.67;7.67;;;;;31.69;26.52;101370.75;4975447;28;45557;-79
2023/06/05 08:47:44;;;;;;;;;9.67;9.67;;;;;31.97;25.81;101377.72;4973860;28;45938;-78
2023/06/05 08:50:10;;;;;;;;;11.00;10.00;;;;;31.94;25.81;101333.44;4973551;28;45427;-81
2023/06/05 08:52:41;;;;;;;;;7.33;5.67;;;;;32.45;25.07;101378.41;4972750;28;45572;-77
2023/06/05 08:55:07;;;;;;;;;7.33;5.00;;;;;32.50;25.21;101358.28;4952248;28;45384;-78
2023/06/05 08:57:36;;;;;;;;;11.00;10.33;;;;;32.82;24.11;101378.09;4952757;28;46545;-79
2023/06/05 09:00:07;;;;;;;;;10.67;9.67;;;;;33.00;24.57;101375.88;4958197;28;48137;-77
2023/06/05 09:02:33;;;;;;;;;8.67;8.67;;;;;33.43;24.34;101358.69;4956449;28;46109;-78
2023/06/05 09:05:01;;;;;;;;;8.33;8.00;;;;;33.86;23.67;101376.47;4973209;28;45432;-75
2023/06/05 09:07:29;;;;;;;;;8.33;7.00;;;;;34.01;22.72;101364.50;4970882;28;46513;-78
2023/06/05 09:09:54;;;;;;;;;7.00;7.00;;;;;33.92;22.87;101357.94;4966972;28;47406;-75
2023/06/05 09:12:20;;;;;;;;;7.67;7.67;;;;;34.21;22.50;101332.34;4966171;28;45700;-77
2023/06/05 09:14:45;;;;;;;;;7.67;7.67;;;;;34.96;22.16;101365.97;4974025;28;46435;-83
2023/06/05 09:17:14;;;;;;;;;10.00;8.33;;;;;35.59;21.80;101351.97;4949830;28;45655;-78
2023/06/05 09:19:40;;;;;;;;;5.00;4.00;;;;;36.17;20.77;101329.56;4970585;28;45955;-75
2023/06/05 09:22:10;;;;;;;;;10.67;9.67;;;;;36.91;20.36;101355.47;4972748;28;45507;-80
2023/06/05 09:24:37;;;;;;;;;11.00;10.00;;;;;37.29;19.26;101355.31;4974017;28;45496;-75
2023/06/05 09:27:08;;;;;;;;;9.00;9.00;;;;;37.40;19.00;101324.25;4969973;28;45688;-75
2023/06/05 09:29:38;;;;;;;;;9.67;9.33;;;;;37.82;18.86;101344.44;4973767;28;46542;-77
2023/06/05 09:32:09;;;;;;;;;7.33;7.33;;;;;38.24;18.66;101356.25;4945965;28;46608;-75
2023/06/05 09:34:38;;;;;;;;;7.33;7.33;;;;;38.79;18.38;101351.22;4972663;28;45594;-77
2023/06/05 09:37:06;;;;;;;;;10.33;9.33;;;;;39.31;17.32;101337.56;4946943;28;45629;-77
2023/06/05 09:39:35;;;;;;;;;8.67;8.67;;;;;39.66;17.49;101351.59;4972082;28;45876;-78
2023/06/05 09:42:01;;;;;;;;;8.00;8.00;;;;;40.00;16.62;101303.44;4971683;28;45405;-76
2023/06/05 09:44:28;;;;;;;;;6.33;6.00;;;;;40.14;16.84;101313.28;4972496;28;45408;-75
2023/06/05 09:47:03;;;;;;;;;8.33;7.00;;;;;39.90;17.22;101331.63;4973549;28;45331;-76
2023/06/05 09:49:46;;;;;;;;;4.33;4.33;;;;;39.65;16.89;101336.00;4970998;28;46716;-75
2023/06/05 09:52:13;;;;;;;;;7.67;7.67;;;;;39.13;17.27;101333.91;4973930;28;45507;-76
2023/06/05 09:54:41;;;;;;;;;9.00;8.33;;;;;38.74;17.70;101337.47;4973485;28;45591;-76
2023/06/05 09:57:09;;;;;;;;;10.00;9.00;;;;;38.43;18.07;101334.66;4953613;28;45620;-76
2023/06/05 09:59:45;;;;;;;;;8.33;6.67;;;;;37.83;18.74;101336.94;4972667;28;47411;-76
2023/06/05 10:02:16;;;;;;;;;10.00;7.33;;;;;37.20;19.19;101338.53;4972301;28;45490;-76
2023/06/05 10:04:59;;;;;;;;;5.67;5.33;;;;;36.21;19.69;101298.19;4973225;28;45313;-77
2023/06/05 10:07:26;;;;;;;;;9.67;9.67;;;;;35.43;20.52;101317.34;4970125;28;45276;-77
2023/06/05 10:09:54;;;;;;;;;8.33;8.00;;;;;34.21;21.96;101322.13;4972955;28;45512;-76
2023/06/05 10:12:20;;;;;;;;;10.67;9.33;;;;;33.47;22.79;101334.16;4970463;28;45516;-75
2023/06/05 10:14:48;;;;;;;;;6.00;5.00;;;;;32.70;23.42;101343.69;4972218;28;45401;-77
2023/06/05 10:17:13;;;;;;;;;9.33;7.33;;;;;32.16;24.38;101342.28;4973604;28;45534;-78
2023/06/05 10:19:43;;;;;;;;;7.67;7.67;;;;;31.63;25.17;101344.31;4954559;28;47459;-77
2023/06/05 10:22:12;;;;;;;;;7.33;7.00;;;;;31.06;25.20;101323.19;4971716;28;45595;-78
2023/06/05 10:24:44;;;;;;;;;7.00;7.00;;;;;30.55;25.45;101319.22;4956718;28;45489;-77
2023/06/05 10:27:15;;;;;;;;;9.33;8.00;;;;;30.22;25.67;101331.28;4974571;28;45596;-75
2023/06/05 10:29:50;;;;;;;;;7.33;7.00;;;;;29.79;25.39;101334.94;4945105;28;47658;-75
2023/06/05 10:32:34;;;;;;;;;9.33;9.33;;;;;29.26;25.11;101334.56;4969909;28;45437;-78
2023/06/05 10:35:15;;;;;;;;;9.33;9.33;;;;;28.79;26.14;101337.69;4971727;28;45847;-75
2023/06/05 10:37:52;;;;;;;;;9.67;8.67;;;;;28.52;26.76;101342.19;4944416;28;45656;-75
2023/06/05 10:40:19;;;;;;;;;9.00;8.67;;;;;27.86;26.32;101270.78;4971216;28;46274;-80
2023/06/05 10:42:44;;;;;;;;;4.67;4.67;;;;;27.96;26.34;101327.50;4971900;28;45375;-74
2023/06/05 10:45:10;;;;;;;;;8.00;7.00;;;;;27.81;27.24;101332.69;4969737;28;45444;-74
2023/06/05 10:47:35;;;;;;;;;8.00;8.00;;;;;27.70;27.29;101328.94;4971128;28;45489;-72
2023/06/05 10:50:16;;;;;;;;;7.67;6.67;;;;;27.58;27.71;101325.38;4971955;28;45790;-74
2023/06/05 10:52:41;;;;;;;;;7.00;6.00;;;;;27.21;28.50;101303.03;4972789;28;45196;-76
2023/06/05 10:55:07;;;;;;;;;7.67;7.00;;;;;27.11;27.32;101303.66;4939684;28;45421;-73
2023/06/05 10:58:10;;;;;;;;;6.33;5.67;;;;;27.09;27.31;101303.06;4972486;28;45464;-74
2023/06/05 11:01:13;;;;;;;;;10.00;9.67;;;;;26.95;27.45;101307.06;4949892;28;48193;-74
2023/06/05 11:03:56;;;;;;;;;8.33;6.33;;;;;26.82;27.19;101293.66;4946571;28;45512;-72
2023/06/05 11:06:21;;;;;;;;;10.33;8.00;;;;;26.80;27.28;101301.25;4972083;28;45271;-75
2023/06/05 11:09:25;;;;;;;;;7.00;7.00;;;;;26.62;28.13;101304.94;4954795;28;45541;-74
2023/06/05 11:11:58;;;;;;;;;8.00;8.00;;;;;26.54;28.11;101291.66;4892967;29;46709;-72
2023/06/05 11:14:24;;;;;;;;;10.67;7.67;;;;;26.38;28.95;101287.72;4895832;28;45455;-74
2023/06/05 11:16:50;;;;;;;;;7.00;7.00;;;;;26.36;29.14;101290.69;4932580;28;45478;-75
2023/06/05 11:19:16;;;;;;;;;9.67;9.67;;;;;26.36;29.60;101282.50;4954676;28;45472;-79